createdAt,value
2024-02-04T00:01:00.157Z,15.74
2024-02-04T00:03:26.732Z,15.77
2024-02-04T00:05:53.124Z,15.52
2024-02-04T00:08:19.455Z,15.67
2024-02-04T00:10:45.819Z,15.38
2024-02-04T00:13:12.272Z,16.51
2024-02-04T00:15:38.646Z,16.28
2024-02-04T00:18:05.091Z,16.10
2024-02-04T00:20:31.593Z,15.84
2024-02-04T00:22:57.912Z,16.23
2024-02-04T00:25:24.309Z,16.36
2024-02-04T00:27:51.032Z,17.28
2024-02-04T00:30:17.378Z,17.19
2024-02-04T00:32:43.821Z,17.67
2024-02-04T00:35:10.212Z,17.29
2024-02-04T00:37:36.549Z,18.30
2024-02-04T00:40:02.994Z,17.55
2024-02-04T00:42:29.494Z,18.81
2024-02-04T00:44:56.029Z,18.58
2024-02-04T00:47:22.374Z,16.87
2024-02-04T00:49:48.774Z,17.57
2024-02-04T00:52:15.140Z,16.98
2024-02-04T00:54:41.491Z,16.81
2024-02-04T00:57:07.848Z,17.55
2024-02-04T00:59:34.186Z,16.92
2024-02-04T01:02:00.634Z,15.75
2024-02-04T01:04:27.258Z,15.71
2024-02-04T01:07:00.999Z,16.27
2024-02-04T01:09:28.583Z,15.54
2024-02-04T01:11:54.953Z,16.07
2024-02-04T01:14:21.278Z,15.35
2024-02-04T01:16:47.621Z,15.37
2024-02-04T01:19:14.090Z,14.73
2024-02-04T01:21:40.607Z,14.93
2024-02-04T01:24:06.962Z,14.56
2024-02-04T01:26:33.294Z,14.57
2024-02-04T01:28:59.622Z,14.32
2024-02-04T01:31:25.934Z,14.12
2024-02-04T01:33:52.656Z,14.24
2024-02-04T01:36:19.054Z,14.30
2024-02-04T01:38:45.377Z,14.19
2024-02-04T01:41:11.746Z,13.95
2024-02-04T01:43:38.108Z,14.40
2024-02-04T01:46:08.682Z,14.60
2024-02-04T01:48:35.738Z,15.02
2024-02-04T01:51:02.195Z,15.52
2024-02-04T01:53:28.579Z,16.22
2024-02-04T01:55:54.908Z,15.54
2024-02-04T01:58:21.265Z,16.38
2024-02-04T02:00:47.635Z,16.29
2024-02-04T02:03:14.098Z,17.35
2024-02-04T02:05:40.442Z,16.74
2024-02-04T02:08:06.775Z,16.43
2024-02-04T02:10:33.225Z,17.84
2024-02-04T02:12:59.684Z,17.83
2024-02-04T02:15:26.273Z,17.47
2024-02-04T02:17:52.731Z,17.94
2024-02-04T02:20:19.106Z,18.08
2024-02-04T02:22:45.450Z,18.71
2024-02-04T02:25:11.807Z,18.68
2024-02-04T02:27:38.166Z,18.39
2024-02-04T02:30:04.496Z,19.39
2024-02-04T02:32:31.104Z,19.44
2024-02-04T02:34:57.546Z,19.65
2024-02-04T02:37:23.918Z,20.41
2024-02-04T02:39:50.269Z,20.12
2024-02-04T02:42:16.585Z,19.58
2024-02-04T02:44:42.921Z,20.06
2024-02-04T02:47:09.301Z,19.40
2024-02-04T02:49:35.842Z,18.48
2024-02-04T02:52:02.282Z,17.44
2024-02-04T02:54:28.612Z,18.19
2024-02-04T02:56:54.954Z,18.00
2024-02-04T02:59:21.277Z,17.65
2024-02-04T03:01:47.674Z,17.90
2024-02-04T03:04:14.127Z,17.37
2024-02-04T03:06:40.590Z,18.57
2024-02-04T03:09:06.936Z,18.25
2024-02-04T03:11:33.292Z,19.07
2024-02-04T03:13:59.624Z,18.88
2024-02-04T03:16:25.961Z,19.94
2024-02-04T03:18:52.386Z,19.84
2024-02-04T03:21:18.756Z,19.99
2024-02-04T03:23:45.089Z,20.38
2024-02-04T03:26:11.433Z,20.13
2024-02-04T03:28:37.761Z,21.10
2024-02-04T03:31:04.416Z,20.47
2024-02-04T03:33:30.951Z,20.56
2024-02-04T03:35:57.356Z,21.03
2024-02-04T03:38:23.677Z,20.41
2024-02-04T03:40:50.124Z,20.53
2024-02-04T03:43:16.571Z,20.72
2024-02-04T03:45:42.960Z,21.18
2024-02-04T03:48:09.397Z,21.51
2024-02-04T03:50:35.789Z,20.76
2024-02-04T03:53:02.112Z,21.20
2024-02-04T03:55:28.468Z,21.97
2024-02-04T03:57:54.805Z,21.74
2024-02-04T04:00:21.141Z,21.34
2024-02-04T04:02:47.539Z,20.42
2024-02-04T04:05:14.271Z,21.20
2024-02-04T04:07:40.883Z,21.79
2024-02-04T04:10:07.294Z,21.66
2024-02-04T04:12:33.645Z,22.94
2024-02-04T04:14:59.982Z,22.00
2024-02-04T04:17:26.299Z,21.56
2024-02-04T04:19:52.741Z,21.21
2024-02-04T04:22:19.136Z,21.07
2024-02-04T04:24:45.626Z,20.62
2024-02-04T04:27:11.977Z,20.87
2024-02-04T04:29:38.304Z,19.67
2024-02-04T04:32:04.626Z,19.39
2024-02-04T04:34:30.959Z,18.66
2024-02-04T04:36:57.441Z,18.96
2024-02-04T04:39:23.814Z,19.60
2024-02-04T04:41:50.152Z,18.78
2024-02-04T04:44:16.495Z,19.97
2024-02-04T04:46:42.824Z,19.87
2024-02-04T04:49:09.274Z,19.01
2024-02-04T04:51:35.657Z,19.53
2024-02-04T04:54:02.030Z,18.79
2024-02-04T04:56:28.380Z,20.07
2024-02-04T04:58:54.720Z,19.77
2024-02-04T05:01:21.247Z,20.06
2024-02-04T05:03:47.681Z,20.68
2024-02-04T05:06:14.019Z,20.14
2024-02-04T05:08:40.342Z,19.14
2024-02-04T05:11:06.669Z,18.61
2024-02-04T05:13:32.995Z,17.74
2024-02-04T05:15:59.327Z,17.55
2024-02-04T05:18:25.871Z,17.95
2024-02-04T05:20:52.257Z,18.06
2024-02-04T05:23:18.628Z,18.69
2024-02-04T05:25:44.962Z,19.88
2024-02-04T05:28:11.390Z,19.35
2024-02-04T05:30:37.800Z,18.74
2024-02-04T05:33:04.198Z,18.63
2024-02-04T05:35:30.528Z,18.83
2024-02-04T05:37:56.859Z,18.19
2024-02-04T05:40:23.184Z,17.64
2024-02-04T05:42:49.849Z,18.12
2024-02-04T05:45:16.221Z,17.04
2024-02-04T05:47:42.782Z,16.23
2024-02-04T05:50:09.329Z,16.52
2024-02-04T05:52:35.716Z,18.31
2024-02-04T05:55:04.920Z,17.89
2024-02-04T05:57:31.931Z,18.21
2024-02-04T05:59:58.263Z,17.60
2024-02-04T06:02:24.757Z,17.58
2024-02-04T06:04:51.264Z,18.68
2024-02-04T06:07:17.836Z,18.60
2024-02-04T06:09:44.270Z,18.06
2024-02-04T06:12:10.613Z,17.96
2024-02-04T06:14:36.948Z,17.08
2024-02-04T06:17:03.281Z,17.18
2024-02-04T06:19:29.725Z,17.65
2024-02-04T06:21:56.109Z,16.75
2024-02-04T06:24:22.465Z,16.95
2024-02-04T06:26:48.776Z,17.64
2024-02-04T06:29:15.112Z,17.62
2024-02-04T06:31:41.433Z,17.49
2024-02-04T06:34:07.895Z,18.56
2024-02-04T06:36:34.501Z,18.27
2024-02-04T06:39:00.886Z,18.33
2024-02-04T06:41:27.205Z,20.90
2024-02-04T06:43:53.535Z,27.83
2024-02-04T06:46:19.900Z,28.30
2024-02-04T06:48:46.426Z,27.57
2024-02-04T06:51:12.842Z,27.55
2024-02-04T06:53:39.203Z,26.22
2024-02-04T06:56:05.527Z,27.31
2024-02-04T06:58:31.857Z,27.55
2024-02-04T07:00:58.624Z,26.59
2024-02-04T07:03:25.076Z,27.12
2024-02-04T07:05:51.481Z,26.99
2024-02-04T07:08:17.820Z,26.43
2024-02-04T07:10:44.259Z,26.11
2024-02-04T07:13:10.751Z,27.25
2024-02-04T07:15:37.134Z,28.13
2024-02-04T07:18:03.532Z,29.13
2024-02-04T07:20:29.906Z,29.62
2024-02-04T07:22:56.288Z,31.26
2024-02-04T07:25:22.825Z,31.06
2024-02-04T07:27:49.214Z,31.21
2024-02-04T07:30:15.564Z,31.43
2024-02-04T07:32:42.070Z,31.20
2024-02-04T07:35:08.497Z,30.66
2024-02-04T07:37:34.881Z,29.76
2024-02-04T07:40:01.313Z,30.43
2024-02-04T07:42:28.055Z,29.45
2024-02-04T07:44:54.394Z,29.03
2024-02-04T07:47:20.753Z,27.96
2024-02-04T07:49:47.305Z,26.78
2024-02-04T07:52:13.743Z,24.52
2024-02-04T07:54:40.155Z,24.02
2024-02-04T07:57:06.533Z,24.68
2024-02-04T07:59:32.862Z,27.43
2024-02-04T08:01:59.245Z,28.22
2024-02-04T08:04:25.611Z,28.28
2024-02-04T08:06:52.189Z,28.39
2024-02-04T08:09:18.579Z,28.60
2024-02-04T08:11:44.923Z,28.10
2024-02-04T08:14:11.256Z,28.21
2024-02-04T08:16:37.586Z,27.64
2024-02-04T08:19:04.095Z,28.26
2024-02-04T08:21:30.467Z,26.57
2024-02-04T08:23:56.801Z,27.25
2024-02-04T08:26:23.137Z,27.77
2024-02-04T08:28:49.463Z,27.94
2024-02-04T08:31:15.882Z,29.61
2024-02-04T08:33:42.369Z,29.52
2024-02-04T08:36:08.732Z,30.41
2024-02-04T08:38:35.062Z,30.73
2024-02-04T08:41:01.413Z,31.01
2024-02-04T08:43:27.827Z,32.76
2024-02-04T08:45:54.204Z,33.32
2024-02-04T08:48:20.608Z,32.95
2024-02-04T08:50:46.950Z,35.01
2024-02-04T08:53:13.280Z,35.15
2024-02-04T08:55:39.603Z,35.13
2024-02-04T08:58:05.950Z,36.27
2024-02-04T09:00:32.365Z,36.28
2024-02-04T09:02:58.709Z,35.71
2024-02-04T09:05:25.045Z,35.46
2024-02-04T09:07:51.454Z,34.29
2024-02-04T09:10:17.949Z,36.21
2024-02-04T09:12:44.507Z,35.33
2024-02-04T09:15:10.954Z,35.72
2024-02-04T09:17:37.497Z,34.56
2024-02-04T09:20:04.337Z,33.70
2024-02-04T09:22:30.944Z,34.41
2024-02-04T09:24:57.514Z,33.11
2024-02-04T09:27:23.986Z,34.83
2024-02-04T09:29:50.413Z,36.21
2024-02-04T09:32:19.286Z,36.65
2024-02-04T09:34:46.169Z,36.88
2024-02-04T09:37:13.095Z,35.99
2024-02-04T09:39:39.632Z,35.24
2024-02-04T09:42:06.082Z,36.21
2024-02-04T09:44:32.431Z,36.37
2024-02-04T09:46:58.792Z,37.09
2024-02-04T09:49:25.293Z,35.14
2024-02-04T09:51:51.908Z,35.99
2024-02-04T09:54:18.486Z,35.13
2024-02-04T09:56:44.856Z,36.33
2024-02-04T09:59:11.220Z,38.04
2024-02-04T10:01:37.690Z,37.53
2024-02-04T10:04:04.517Z,37.34
2024-02-04T10:06:32.257Z,37.57
2024-02-04T10:08:58.930Z,36.31
2024-02-04T10:11:25.409Z,36.39
2024-02-04T10:13:51.750Z,36.52
2024-02-04T10:16:18.094Z,36.92
2024-02-04T10:18:44.621Z,36.06
2024-02-04T10:21:11.031Z,37.12
2024-02-04T10:23:37.359Z,35.97
2024-02-04T10:26:06.462Z,35.25
2024-02-04T10:28:34.168Z,35.03
2024-02-04T10:31:00.525Z,35.29
2024-02-04T10:33:27.092Z,35.14
2024-02-04T10:35:53.646Z,35.60
2024-02-04T10:38:20.023Z,34.40
2024-02-04T10:40:46.391Z,33.63
2024-02-04T10:43:12.726Z,34.26
2024-02-04T10:45:39.093Z,33.63
2024-02-04T10:48:05.530Z,32.74
2024-02-04T10:50:31.883Z,32.82
2024-02-04T10:52:58.197Z,32.16
2024-02-04T10:55:24.603Z,31.69
2024-02-04T10:57:50.958Z,31.90
2024-02-04T11:00:17.289Z,29.84
2024-02-04T11:02:43.623Z,27.30
2024-02-04T11:05:10.093Z,25.01
2024-02-04T11:07:36.492Z,25.39
2024-02-04T11:10:02.980Z,24.87
2024-02-04T11:12:29.403Z,24.81
2024-02-04T11:14:55.735Z,25.21
2024-02-04T11:17:22.106Z,27.12
2024-02-04T11:19:48.552Z,27.34
2024-02-04T11:22:15.024Z,26.57
2024-02-04T11:24:41.423Z,27.67
2024-02-04T11:27:07.776Z,27.96
2024-02-04T11:29:34.188Z,27.05
2024-02-04T11:32:00.695Z,29.07
2024-02-04T11:34:27.460Z,29.07
2024-02-04T11:36:53.960Z,29.38
2024-02-04T11:39:20.391Z,29.22
2024-02-04T11:41:46.792Z,28.44
2024-02-04T11:44:13.124Z,26.26
2024-02-04T11:46:39.548Z,25.38
2024-02-04T11:49:06.144Z,25.65
2024-02-04T11:51:32.731Z,25.93
2024-02-04T11:53:59.324Z,22.72
2024-02-04T11:56:25.863Z,21.35
2024-02-04T11:58:52.236Z,21.59
2024-02-04T12:01:18.606Z,18.94
2024-02-04T12:03:44.977Z,15.00
2024-02-04T12:06:11.465Z,15.65
2024-02-04T12:08:37.804Z,13.98
2024-02-04T12:11:04.126Z,12.58
2024-02-04T12:13:30.484Z,11.09
2024-02-04T12:15:56.856Z,12.27
2024-02-04T12:18:23.376Z,10.71
2024-02-04T12:20:49.912Z,10.70
2024-02-04T12:23:16.269Z,11.49
2024-02-04T12:25:44.792Z,11.09
2024-02-04T12:28:11.515Z,11.45
2024-02-04T12:30:37.985Z,11.97
2024-02-04T12:33:04.393Z,12.41
2024-02-04T12:35:30.758Z,13.07
2024-02-04T12:37:57.084Z,14.05
2024-02-04T12:40:23.397Z,13.50
2024-02-04T12:42:49.760Z,12.06
2024-02-04T12:45:16.209Z,12.72
2024-02-04T12:47:42.660Z,11.67
2024-02-04T12:50:09.024Z,10.57
2024-02-04T12:52:35.386Z,9.09
2024-02-04T12:55:01.774Z,8.98
2024-02-04T12:57:28.157Z,8.42
2024-02-04T12:59:54.502Z,8.90
2024-02-04T13:02:20.822Z,9.88
2024-02-04T13:04:47.383Z,9.37
2024-02-04T13:07:13.850Z,9.80
2024-02-04T13:09:40.383Z,10.34
2024-02-04T13:12:06.896Z,9.61
2024-02-04T13:14:33.210Z,9.92
2024-02-04T13:16:59.648Z,10.18
2024-02-04T13:19:26.099Z,9.74
2024-02-04T13:21:52.548Z,9.84
2024-02-04T13:24:18.904Z,10.18
2024-02-04T13:26:45.229Z,9.88
2024-02-04T13:29:11.559Z,10.32
2024-02-04T13:31:37.953Z,9.57
2024-02-04T13:34:04.420Z,9.00
2024-02-04T13:36:30.812Z,8.52
2024-02-04T13:38:57.174Z,8.10
2024-02-04T13:41:23.517Z,8.67
2024-02-04T13:43:49.827Z,9.37
2024-02-04T13:46:16.205Z,9.94
2024-02-04T13:48:42.643Z,10.24
2024-02-04T13:51:09.014Z,10.90
2024-02-04T13:53:35.353Z,11.43
2024-02-04T13:56:01.821Z,11.53
2024-02-04T13:58:28.407Z,12.14
2024-02-04T14:00:54.837Z,12.31
2024-02-04T14:03:21.218Z,13.53
2024-02-04T14:05:47.575Z,13.03
2024-02-04T14:08:13.920Z,13.51
2024-02-04T14:10:40.266Z,12.98
2024-02-04T14:13:09.733Z,12.23
2024-02-04T14:15:37.489Z,12.68
2024-02-04T14:18:03.900Z,12.70
2024-02-04T14:20:30.293Z,12.71
2024-02-04T14:22:56.709Z,12.32
2024-02-04T14:25:23.081Z,13.67
2024-02-04T14:27:49.492Z,13.35
2024-02-04T14:30:15.858Z,13.13
2024-02-04T14:32:42.220Z,12.12
2024-02-04T14:35:08.663Z,9.15
2024-02-04T14:37:35.037Z,7.21
2024-02-04T14:40:01.418Z,7.08
2024-02-04T14:42:27.765Z,6.44
2024-02-04T14:44:54.081Z,7.37
2024-02-04T14:47:20.509Z,7.68
2024-02-04T14:49:46.918Z,6.24
2024-02-04T14:52:13.317Z,6.82
2024-02-04T14:54:39.805Z,5.67
2024-02-04T14:57:06.162Z,5.87
2024-02-04T14:59:32.597Z,5.65
2024-02-04T15:01:59.017Z,5.40
2024-02-04T15:04:25.445Z,4.99
2024-02-04T15:06:52.005Z,6.28
2024-02-04T15:09:18.406Z,6.48
2024-02-04T15:11:44.738Z,6.27
2024-02-04T15:14:11.074Z,6.40
2024-02-04T15:16:37.455Z,5.97
2024-02-04T15:19:03.875Z,6.26
2024-02-04T15:21:30.325Z,6.25
2024-02-04T15:23:56.694Z,6.01
2024-02-04T15:26:23.026Z,6.87
2024-02-04T15:28:49.536Z,7.23
2024-02-04T15:31:17.019Z,7.33
2024-02-04T15:33:43.409Z,7.50
2024-02-04T15:36:09.833Z,8.12
2024-02-04T15:38:36.353Z,7.34
2024-02-04T15:41:02.930Z,7.76
2024-02-04T15:43:29.489Z,7.88
2024-02-04T15:45:56.056Z,7.62
2024-02-04T15:48:22.695Z,7.24
2024-02-04T15:50:49.175Z,7.02
2024-02-04T15:53:15.660Z,7.02
2024-02-04T15:55:42.026Z,7.16
2024-02-04T15:58:08.469Z,7.63
2024-02-04T16:00:34.898Z,7.41
2024-02-04T16:03:01.320Z,7.38
2024-02-04T16:05:27.750Z,7.57
2024-02-04T16:07:54.170Z,7.49
2024-02-04T16:10:20.734Z,7.63
2024-02-04T16:12:47.231Z,7.36
2024-02-04T16:15:13.633Z,7.03
2024-02-04T16:17:40.115Z,6.70
2024-02-04T16:20:06.801Z,6.44
2024-02-04T16:22:33.516Z,6.63
2024-02-04T16:25:00.330Z,6.74
2024-02-04T16:27:26.876Z,6.81
2024-02-04T16:29:53.277Z,6.47
2024-02-04T16:32:19.735Z,6.44
2024-02-04T16:34:46.235Z,6.69
2024-02-04T16:37:12.887Z,6.79
2024-02-04T16:39:39.390Z,6.77
2024-02-04T16:42:05.832Z,6.94
2024-02-04T16:44:32.276Z,7.14
2024-02-04T16:46:58.794Z,7.49
2024-02-04T16:51:52.117Z,7.04
2024-02-04T16:54:18.570Z,7.28
2024-02-04T16:56:45.052Z,7.03
2024-02-04T16:59:11.505Z,7.17
2024-02-04T17:01:38.024Z,7.42
2024-02-04T17:04:04.564Z,7.48
2024-02-04T17:06:31.019Z,7.77
2024-02-04T17:08:57.411Z,8.02
2024-02-04T17:11:23.735Z,8.47
2024-02-04T17:13:50.049Z,8.10
2024-02-04T17:16:16.508Z,8.52
2024-02-04T17:18:42.947Z,8.93
2024-02-04T17:21:09.367Z,8.76
2024-02-04T17:23:35.687Z,10.78
2024-02-04T17:26:02.088Z,11.59
2024-02-04T17:28:28.607Z,10.79
2024-02-04T17:30:54.963Z,10.08
2024-02-04T17:33:21.409Z,9.49
2024-02-04T17:35:47.876Z,9.22
2024-02-04T17:38:14.331Z,10.42
2024-02-04T17:40:40.643Z,11.40
2024-02-04T17:43:07.037Z,11.08
2024-02-04T17:45:33.421Z,11.59
2024-02-04T17:47:59.773Z,13.04
2024-02-04T17:50:28.085Z,12.81
2024-02-04T17:52:54.647Z,12.78
2024-02-04T17:55:20.977Z,12.59
2024-02-04T17:57:47.415Z,12.27
2024-02-04T18:00:13.776Z,11.16
2024-02-04T18:02:46.641Z,11.96
2024-02-04T18:05:15.009Z,12.17
2024-02-04T18:07:41.749Z,11.76
2024-02-04T18:10:08.196Z,11.09
2024-02-04T18:12:34.555Z,11.43
2024-02-04T18:15:00.903Z,11.31
2024-02-04T18:17:28.800Z,11.24
2024-02-04T18:19:56.816Z,11.43
2024-02-04T18:22:23.220Z,11.61
2024-02-04T18:24:49.632Z,15.28
2024-02-04T18:27:15.971Z,12.71
2024-02-04T18:29:42.282Z,12.77
2024-02-04T18:32:08.705Z,13.67
2024-02-04T18:34:35.236Z,13.12
2024-02-04T18:37:01.619Z,14.61
2024-02-04T18:39:27.949Z,14.52
2024-02-04T18:41:54.277Z,14.60
2024-02-04T18:44:20.713Z,14.65
2024-02-04T18:46:47.056Z,15.03
2024-02-04T18:49:13.457Z,14.63
2024-02-04T18:51:39.882Z,14.11
2024-02-04T18:54:06.205Z,14.08
2024-02-04T18:56:32.645Z,14.39
2024-02-04T18:58:59.004Z,14.23
2024-02-04T19:01:25.495Z,14.91
2024-02-04T19:03:52.128Z,14.15
2024-02-04T19:06:18.637Z,14.94
2024-02-04T19:08:45.257Z,15.49
2024-02-04T19:11:11.631Z,14.74
2024-02-04T19:13:37.991Z,14.15
2024-02-04T19:16:04.413Z,14.70
2024-02-04T19:18:30.823Z,14.23
2024-02-04T19:20:57.158Z,14.77
2024-02-04T19:23:23.515Z,15.16
2024-02-04T19:25:49.852Z,15.56
2024-02-04T19:28:16.218Z,15.80
2024-02-04T19:30:42.631Z,15.11
2024-02-04T19:33:09.074Z,15.26
2024-02-04T19:35:35.483Z,15.82
2024-02-04T19:38:01.835Z,16.11
2024-02-04T19:40:28.152Z,16.58
2024-02-04T19:42:54.476Z,17.36
2024-02-04T19:45:20.833Z,17.41
2024-02-04T19:47:47.221Z,18.14
2024-02-04T19:50:13.750Z,17.05
2024-02-04T19:52:40.136Z,17.61
2024-02-04T19:55:06.502Z,17.42
2024-02-04T19:57:32.899Z,17.57
2024-02-04T19:59:59.282Z,17.53
2024-02-04T20:02:25.630Z,17.61
2024-02-04T20:04:52.042Z,17.50
2024-02-04T20:07:18.529Z,17.93
2024-02-04T20:09:44.950Z,18.13
2024-02-04T20:12:11.268Z,17.70
2024-02-04T20:14:37.855Z,18.06
2024-02-04T20:17:04.207Z,17.30
2024-02-04T20:19:30.671Z,17.13
2024-02-04T20:21:57.170Z,16.51
2024-02-04T20:24:23.542Z,20.32
2024-02-04T20:26:49.899Z,21.45
2024-02-04T20:29:16.233Z,21.71
2024-02-04T20:31:42.573Z,21.23
2024-02-04T20:34:09.146Z,20.64
2024-02-04T20:36:35.807Z,21.10
2024-02-04T20:39:02.155Z,20.08
2024-02-04T20:41:28.487Z,19.27
2024-02-04T20:43:54.957Z,19.13
2024-02-04T20:46:21.340Z,19.79
2024-02-04T20:48:47.679Z,19.42
2024-02-04T20:51:14.084Z,19.47
2024-02-04T20:53:40.484Z,19.22
2024-02-04T20:56:06.923Z,18.54
2024-02-04T20:58:33.243Z,17.71
2024-02-04T21:00:59.665Z,18.61
2024-02-04T21:03:26.053Z,18.90
2024-02-04T21:05:52.458Z,17.94
2024-02-04T21:08:18.831Z,17.24
2024-02-04T21:10:45.163Z,17.50
2024-02-04T21:13:11.553Z,17.98
2024-02-04T21:15:38.228Z,16.84
2024-02-04T21:18:04.924Z,16.35
2024-02-04T21:20:31.618Z,15.82
2024-02-04T21:22:57.965Z,15.42
2024-02-04T21:25:24.473Z,14.97
2024-02-04T21:27:50.959Z,14.50
2024-02-04T21:30:17.317Z,14.35
2024-02-04T21:32:43.697Z,15.03
2024-02-04T21:35:10.916Z,15.37
2024-02-04T21:37:37.711Z,14.60
2024-02-04T21:40:04.106Z,15.51
2024-02-04T21:42:30.504Z,14.71
2024-02-04T21:44:56.838Z,15.81
2024-02-04T21:47:23.175Z,17.28
2024-02-04T21:49:49.633Z,17.76
2024-02-04T21:52:16.160Z,22.55
2024-02-04T21:54:42.578Z,20.96
2024-02-04T21:57:08.989Z,20.82
2024-02-04T21:59:35.322Z,21.17
2024-02-04T22:02:01.823Z,20.29
2024-02-04T22:04:28.330Z,18.73
2024-02-04T22:06:54.977Z,17.80
2024-02-04T22:09:21.495Z,16.71
2024-02-04T22:11:47.834Z,15.62
2024-02-04T22:14:14.160Z,15.55
2024-02-04T22:16:40.519Z,15.33
2024-02-04T22:19:07.045Z,16.31
2024-02-04T22:21:33.500Z,16.74
2024-02-04T22:23:59.914Z,16.39
2024-02-04T22:26:26.248Z,15.73
2024-02-04T22:28:52.580Z,15.12
2024-02-04T22:31:19.124Z,15.38
2024-02-04T22:33:45.615Z,14.26
2024-02-04T22:36:12.025Z,13.12
2024-02-04T22:38:38.572Z,12.98
2024-02-04T22:41:04.902Z,12.79
2024-02-04T22:43:31.330Z,12.83
2024-02-04T22:45:57.720Z,12.61
2024-02-04T22:48:24.098Z,12.70
2024-02-04T22:50:50.443Z,12.83
2024-02-04T22:53:16.870Z,12.73
2024-02-04T22:55:43.193Z,12.29
2024-02-04T22:58:09.593Z,11.50
2024-02-04T23:00:36.118Z,11.68
2024-02-04T23:03:02.493Z,11.10
2024-02-04T23:05:28.849Z,11.13
2024-02-04T23:07:57.291Z,11.23
2024-02-04T23:10:25.434Z,10.55
2024-02-04T23:12:51.795Z,11.13
2024-02-04T23:15:18.276Z,10.19
2024-02-04T23:17:44.653Z,9.96
2024-02-04T23:20:11.303Z,10.49
2024-02-04T23:22:37.882Z,9.73
2024-02-04T23:25:04.228Z,9.46
2024-02-04T23:27:30.577Z,9.49
2024-02-04T23:29:57.046Z,9.33
2024-02-04T23:32:23.360Z,9.44
2024-02-04T23:34:49.796Z,8.79
2024-02-04T23:37:16.559Z,8.74
2024-02-04T23:39:42.953Z,8.80
2024-02-04T23:42:09.297Z,8.63
2024-02-04T23:44:35.788Z,8.73
2024-02-04T23:47:02.125Z,8.60
2024-02-04T23:49:28.595Z,8.62
2024-02-04T23:51:55.089Z,8.69
2024-02-04T23:54:21.433Z,8.63
2024-02-04T23:56:47.759Z,8.84
2024-02-04T23:59:14.102Z,8.37
